sensor_id;sensor_type;location;lat;lon;timestamp;temperature;humidity
8832;DHT22;4452;50.756;4.472;2022-10-10T00:00:24;8.20;99.90
8832;DHT22;4452;50.756;4.472;2022-10-10T00:02:50;8.20;99.90
8832;DHT22;4452;50.756;4.472;2022-10-10T00:05:15;8.20;99.90
8832;DHT22;4452;50.756;4.472;2022-10-10T00:07:41;8.20;99.90
8832;DHT22;4452;50.756;4.472;2022-10-10T00:10:07;8.30;99.90
8832;DHT22;4452;50.756;4.472;2022-10-10T00:12:33;8.50;99.90
8832;DHT22;4452;50.756;4.472;2022-10-10T00:14:58;8.40;99.90
8832;DHT22;4452;50.756;4.472;2022-10-10T00:17:24;8.50;99.90
8832;DHT22;4452;50.756;4.472;2022-10-10T00:19:50;8.60;99.90
8832;DHT22;4452;50.756;4.472;2022-10-10T00:22:16;8.60;99.90
8832;DHT22;4452;50.756;4.472;2022-10-10T00:24:41;8.60;99.90
8832;DHT22;4452;50.756;4.472;2022-10-10T00:27:07;8.70;99.90
8832;DHT22;4452;50.756;4.472;2022-10-10T00:29:32;8.70;99.90
8832;DHT22;4452;50.756;4.472;2022-10-10T00:31:58;8.80;99.90
8832;DHT22;4452;50.756;4.472;2022-10-10T00:34:24;8.80;99.90
8832;DHT22;4452;50.756;4.472;2022-10-10T00:36:49;9.00;99.90
8832;DHT22;4452;50.756;4.472;2022-10-10T00:39:15;9.00;99.90
8832;DHT22;4452;50.756;4.472;2022-10-10T00:41:41;9.00;99.90
8832;DHT22;4452;50.756;4.472;2022-10-10T00:44:09;8.90;99.90
8832;DHT22;4452;50.756;4.472;2022-10-10T00:46:36;8.80;99.90
8832;DHT22;4452;50.756;4.472;2022-10-10T00:49:05;8.80;99.90
8832;DHT22;4452;50.756;4.472;2022-10-10T00:51:32;8.60;99.90
8832;DHT22;4452;50.756;4.472;2022-10-10T00:54:05;8.60;99.90
8832;DHT22;4452;50.756;4.472;2022-10-10T00:57:17;8.60;99.90
8832;DHT22;4452;50.756;4.472;2022-10-10T00:59:19;8.50;99.90
8832;DHT22;4452;50.756;4.472;2022-10-10T01:01:45;8.60;99.90
8832;DHT22;4452;50.756;4.472;2022-10-10T01:04:32;8.50;99.90
8832;DHT22;4452;50.756;4.472;2022-10-10T01:06:59;8.60;99.90
8832;DHT22;4452;50.756;4.472;2022-10-10T01:09:27;8.50;99.90
8832;DHT22;4452;50.756;4.472;2022-10-10T01:12:22;8.50;99.90
8832;DHT22;4452;50.756;4.472;2022-10-10T01:15:19;8.40;99.90
8832;DHT22;4452;50.756;4.472;2022-10-10T01:20:58;8.30;99.90
8832;DHT22;4452;50.756;4.472;2022-10-10T01:32:16;8.10;99.90
8832;DHT22;4452;50.756;4.472;2022-10-10T01:43:01;8.10;99.90
8832;DHT22;4452;50.756;4.472;2022-10-10T01:45:27;8.10;99.90
8832;DHT22;4452;50.756;4.472;2022-10-10T01:48:01;8.10;99.90
8832;DHT22;4452;50.756;4.472;2022-10-10T01:50:29;8.10;99.90
8832;DHT22;4452;50.756;4.472;2022-10-10T01:53:11;8.20;99.90
8832;DHT22;4452;50.756;4.472;2022-10-10T01:56:06;8.20;99.90
8832;DHT22;4452;50.756;4.472;2022-10-10T02:01:22;8.10;99.90
8832;DHT22;4452;50.756;4.472;2022-10-10T02:04:06;8.20;99.90
8832;DHT22;4452;50.756;4.472;2022-10-10T02:06:44;8.20;99.90
8832;DHT22;4452;50.756;4.472;2022-10-10T02:09:19;8.30;99.90
8832;DHT22;4452;50.756;4.472;2022-10-10T02:11:46;8.40;99.90
8832;DHT22;4452;50.756;4.472;2022-10-10T02:14:27;8.40;99.90
8832;DHT22;4452;50.756;4.472;2022-10-10T02:16:55;8.40;99.90
8832;DHT22;4452;50.756;4.472;2022-10-10T02:19:23;8.40;99.90
8832;DHT22;4452;50.756;4.472;2022-10-10T02:21:51;8.40;99.90
8832;DHT22;4452;50.756;4.472;2022-10-10T02:24:19;8.40;99.90
8832;DHT22;4452;50.756;4.472;2022-10-10T02:26:55;8.40;99.90
8832;DHT22;4452;50.756;4.472;2022-10-10T02:29:30;8.40;99.90
8832;DHT22;4452;50.756;4.472;2022-10-10T02:32:13;8.40;99.90
8832;DHT22;4452;50.756;4.472;2022-10-10T02:34:45;8.50;99.90
8832;DHT22;4452;50.756;4.472;2022-10-10T02:37:13;8.60;99.90
8832;DHT22;4452;50.756;4.472;2022-10-10T02:39:47;8.60;99.90
8832;DHT22;4452;50.756;4.472;2022-10-10T02:42:16;8.60;99.90
8832;DHT22;4452;50.756;4.472;2022-10-10T02:44:42;8.70;99.90
8832;DHT22;4452;50.756;4.472;2022-10-10T02:47:09;8.80;99.90
8832;DHT22;4452;50.756;4.472;2022-10-10T02:49:34;8.80;99.90
8832;DHT22;4452;50.756;4.472;2022-10-10T02:52:01;8.80;99.90
8832;DHT22;4452;50.756;4.472;2022-10-10T02:54:27;8.70;99.90
8832;DHT22;4452;50.756;4.472;2022-10-10T02:56:52;8.80;99.90
8832;DHT22;4452;50.756;4.472;2022-10-10T02:59:18;8.80;99.90
8832;DHT22;4452;50.756;4.472;2022-10-10T03:01:44;8.90;99.90
8832;DHT22;4452;50.756;4.472;2022-10-10T03:04:10;8.90;99.90
8832;DHT22;4452;50.756;4.472;2022-10-10T03:06:36;8.90;99.90
8832;DHT22;4452;50.756;4.472;2022-10-10T03:09:02;8.90;99.90
8832;DHT22;4452;50.756;4.472;2022-10-10T03:11:28;8.80;99.90
8832;DHT22;4452;50.756;4.472;2022-10-10T03:13:54;8.80;99.90
8832;DHT22;4452;50.756;4.472;2022-10-10T03:16:19;8.80;99.90
8832;DHT22;4452;50.756;4.472;2022-10-10T03:18:45;8.80;99.90
8832;DHT22;4452;50.756;4.472;2022-10-10T03:21:11;8.80;99.90
8832;DHT22;4452;50.756;4.472;2022-10-10T03:23:36;8.80;99.90
8832;DHT22;4452;50.756;4.472;2022-10-10T03:26:04;8.80;99.90
8832;DHT22;4452;50.756;4.472;2022-10-10T03:28:30;8.80;99.90
8832;DHT22;4452;50.756;4.472;2022-10-10T03:30:55;8.80;99.90
8832;DHT22;4452;50.756;4.472;2022-10-10T03:33:21;8.80;99.90
8832;DHT22;4452;50.756;4.472;2022-10-10T03:35:48;8.70;99.90
8832;DHT22;4452;50.756;4.472;2022-10-10T03:38:14;8.70;99.90
8832;DHT22;4452;50.756;4.472;2022-10-10T03:40:42;8.70;99.90
8832;DHT22;4452;50.756;4.472;2022-10-10T03:43:08;8.70;99.90
8832;DHT22;4452;50.756;4.472;2022-10-10T03:45:35;8.60;99.90
8832;DHT22;4452;50.756;4.472;2022-10-10T03:48:00;8.70;99.90
8832;DHT22;4452;50.756;4.472;2022-10-10T03:50:26;8.80;99.90
8832;DHT22;4452;50.756;4.472;2022-10-10T03:52:52;8.80;99.90
8832;DHT22;4452;50.756;4.472;2022-10-10T03:55:17;8.80;99.90
8832;DHT22;4452;50.756;4.472;2022-10-10T03:57:43;9.00;99.90
8832;DHT22;4452;50.756;4.472;2022-10-10T04:00:09;9.00;99.90
8832;DHT22;4452;50.756;4.472;2022-10-10T04:02:35;9.00;99.90
8832;DHT22;4452;50.756;4.472;2022-10-10T04:05:00;8.90;99.90
8832;DHT22;4452;50.756;4.472;2022-10-10T04:07:26;9.00;99.90
8832;DHT22;4452;50.756;4.472;2022-10-10T04:09:52;9.00;99.90
8832;DHT22;4452;50.756;4.472;2022-10-10T04:12:19;9.10;99.90
8832;DHT22;4452;50.756;4.472;2022-10-10T04:14:44;9.00;99.90
8832;DHT22;4452;50.756;4.472;2022-10-10T04:17:10;8.90;99.90
8832;DHT22;4452;50.756;4.472;2022-10-10T04:19:36;8.80;99.90
8832;DHT22;4452;50.756;4.472;2022-10-10T04:22:01;8.80;99.90
8832;DHT22;4452;50.756;4.472;2022-10-10T04:24:27;8.80;99.90
8832;DHT22;4452;50.756;4.472;2022-10-10T04:26:53;8.80;99.90
8832;DHT22;4452;50.756;4.472;2022-10-10T04:29:19;8.90;99.90
8832;DHT22;4452;50.756;4.472;2022-10-10T04:31:45;8.80;99.90
8832;DHT22;4452;50.756;4.472;2022-10-10T04:34:10;9.00;99.90
8832;DHT22;4452;50.756;4.472;2022-10-10T04:36:36;9.00;99.90
8832;DHT22;4452;50.756;4.472;2022-10-10T04:39:02;9.10;99.90
8832;DHT22;4452;50.756;4.472;2022-10-10T04:41:28;9.00;99.90
8832;DHT22;4452;50.756;4.472;2022-10-10T04:43:54;9.10;99.90
8832;DHT22;4452;50.756;4.472;2022-10-10T04:46:20;9.10;99.90
8832;DHT22;4452;50.756;4.472;2022-10-10T04:48:46;9.20;99.90
8832;DHT22;4452;50.756;4.472;2022-10-10T04:51:11;9.20;99.90
8832;DHT22;4452;50.756;4.472;2022-10-10T04:53:37;9.40;99.90
8832;DHT22;4452;50.756;4.472;2022-10-10T04:56:03;9.30;99.90
8832;DHT22;4452;50.756;4.472;2022-10-10T04:58:29;9.30;99.90
8832;DHT22;4452;50.756;4.472;2022-10-10T05:00:55;9.30;99.90
8832;DHT22;4452;50.756;4.472;2022-10-10T05:03:22;9.30;99.90
8832;DHT22;4452;50.756;4.472;2022-10-10T05:05:48;9.30;99.90
8832;DHT22;4452;50.756;4.472;2022-10-10T05:08:15;9.20;99.90
8832;DHT22;4452;50.756;4.472;2022-10-10T05:10:40;9.30;99.90
8832;DHT22;4452;50.756;4.472;2022-10-10T05:13:10;9.30;99.90
8832;DHT22;4452;50.756;4.472;2022-10-10T05:15:36;9.30;99.90
8832;DHT22;4452;50.756;4.472;2022-10-10T05:18:02;9.30;99.90
8832;DHT22;4452;50.756;4.472;2022-10-10T05:20:29;9.30;99.90
8832;DHT22;4452;50.756;4.472;2022-10-10T05:22:55;9.20;99.90
8832;DHT22;4452;50.756;4.472;2022-10-10T05:25:21;9.20;99.90
8832;DHT22;4452;50.756;4.472;2022-10-10T05:27:47;9.20;99.90
8832;DHT22;4452;50.756;4.472;2022-10-10T05:30:13;9.20;99.90
8832;DHT22;4452;50.756;4.472;2022-10-10T05:32:39;9.10;99.90
8832;DHT22;4452;50.756;4.472;2022-10-10T05:35:04;9.00;99.90
8832;DHT22;4452;50.756;4.472;2022-10-10T05:37:31;9.10;99.90
8832;DHT22;4452;50.756;4.472;2022-10-10T05:39:57;9.10;99.90
8832;DHT22;4452;50.756;4.472;2022-10-10T05:42:22;9.00;99.90
8832;DHT22;4452;50.756;4.472;2022-10-10T05:44:48;9.00;99.90
8832;DHT22;4452;50.756;4.472;2022-10-10T05:47:14;9.00;99.90
8832;DHT22;4452;50.756;4.472;2022-10-10T05:49:40;8.90;99.90
8832;DHT22;4452;50.756;4.472;2022-10-10T05:52:05;8.90;99.90
8832;DHT22;4452;50.756;4.472;2022-10-10T05:54:31;8.90;99.90
8832;DHT22;4452;50.756;4.472;2022-10-10T05:56:57;8.90;99.90
8832;DHT22;4452;50.756;4.472;2022-10-10T05:59:22;8.90;99.90
8832;DHT22;4452;50.756;4.472;2022-10-10T06:01:48;8.80;99.90
8832;DHT22;4452;50.756;4.472;2022-10-10T06:04:14;8.80;99.90
8832;DHT22;4452;50.756;4.472;2022-10-10T06:06:40;8.80;99.90
8832;DHT22;4452;50.756;4.472;2022-10-10T06:09:06;8.90;99.90
8832;DHT22;4452;50.756;4.472;2022-10-10T06:11:32;8.80;99.90
8832;DHT22;4452;50.756;4.472;2022-10-10T06:13:57;8.90;99.90
8832;DHT22;4452;50.756;4.472;2022-10-10T06:16:25;8.90;99.90
8832;DHT22;4452;50.756;4.472;2022-10-10T06:18:50;8.90;99.90
8832;DHT22;4452;50.756;4.472;2022-10-10T06:21:16;8.90;99.90
8832;DHT22;4452;50.756;4.472;2022-10-10T06:23:42;9.00;99.90
8832;DHT22;4452;50.756;4.472;2022-10-10T06:26:08;9.10;99.90
8832;DHT22;4452;50.756;4.472;2022-10-10T06:28:34;9.10;99.90
8832;DHT22;4452;50.756;4.472;2022-10-10T06:31:01;9.10;99.90
8832;DHT22;4452;50.756;4.472;2022-10-10T06:33:27;9.10;99.90
8832;DHT22;4452;50.756;4.472;2022-10-10T06:35:53;9.20;99.90
8832;DHT22;4452;50.756;4.472;2022-10-10T06:38:18;9.30;99.90
8832;DHT22;4452;50.756;4.472;2022-10-10T06:40:45;9.40;99.90
8832;DHT22;4452;50.756;4.472;2022-10-10T06:43:12;9.50;99.90
8832;DHT22;4452;50.756;4.472;2022-10-10T06:45:41;9.60;99.90
8832;DHT22;4452;50.756;4.472;2022-10-10T06:48:07;9.60;99.90
8832;DHT22;4452;50.756;4.472;2022-10-10T06:50:33;9.60;99.90
8832;DHT22;4452;50.756;4.472;2022-10-10T06:53:00;9.70;99.90
8832;DHT22;4452;50.756;4.472;2022-10-10T06:55:26;9.60;99.90
8832;DHT22;4452;50.756;4.472;2022-10-10T06:57:52;9.70;99.90
8832;DHT22;4452;50.756;4.472;2022-10-10T07:00:18;9.70;99.90
8832;DHT22;4452;50.756;4.472;2022-10-10T07:02:44;9.80;99.90
8832;DHT22;4452;50.756;4.472;2022-10-10T07:05:11;9.80;99.90
8832;DHT22;4452;50.756;4.472;2022-10-10T07:07:38;10.00;99.90
8832;DHT22;4452;50.756;4.472;2022-10-10T07:10:05;10.10;99.90
8832;DHT22;4452;50.756;4.472;2022-10-10T07:12:31;10.20;99.90
8832;DHT22;4452;50.756;4.472;2022-10-10T07:14:56;10.30;99.90
8832;DHT22;4452;50.756;4.472;2022-10-10T07:17:22;10.40;99.90
8832;DHT22;4452;50.756;4.472;2022-10-10T07:19:48;10.50;99.90
8832;DHT22;4452;50.756;4.472;2022-10-10T07:22:13;10.60;99.90
8832;DHT22;4452;50.756;4.472;2022-10-10T07:24:39;10.80;99.90
8832;DHT22;4452;50.756;4.472;2022-10-10T07:27:05;10.90;99.90
8832;DHT22;4452;50.756;4.472;2022-10-10T07:29:31;10.90;99.90
8832;DHT22;4452;50.756;4.472;2022-10-10T07:31:57;10.90;99.90
8832;DHT22;4452;50.756;4.472;2022-10-10T07:34:23;11.00;99.90
8832;DHT22;4452;50.756;4.472;2022-10-10T07:36:49;11.10;99.90
8832;DHT22;4452;50.756;4.472;2022-10-10T07:39:25;11.20;99.90
8832;DHT22;4452;50.756;4.472;2022-10-10T07:41:51;11.30;99.90
8832;DHT22;4452;50.756;4.472;2022-10-10T07:44:17;11.40;99.90
8832;DHT22;4452;50.756;4.472;2022-10-10T07:46:43;11.40;99.90
8832;DHT22;4452;50.756;4.472;2022-10-10T07:49:09;11.50;99.90
8832;DHT22;4452;50.756;4.472;2022-10-10T07:51:35;11.50;99.90
8832;DHT22;4452;50.756;4.472;2022-10-10T07:54:01;11.70;99.90
8832;DHT22;4452;50.756;4.472;2022-10-10T07:56:27;11.80;99.90
8832;DHT22;4452;50.756;4.472;2022-10-10T07:58:53;11.90;99.90
8832;DHT22;4452;50.756;4.472;2022-10-10T08:01:19;12.10;99.90
8832;DHT22;4452;50.756;4.472;2022-10-10T08:03:44;12.30;99.90
8832;DHT22;4452;50.756;4.472;2022-10-10T08:06:15;12.50;99.90
8832;DHT22;4452;50.756;4.472;2022-10-10T08:08:42;12.60;99.90
8832;DHT22;4452;50.756;4.472;2022-10-10T08:11:08;12.80;99.90
8832;DHT22;4452;50.756;4.472;2022-10-10T08:13:35;13.00;99.90
8832;DHT22;4452;50.756;4.472;2022-10-10T08:16:01;13.10;99.90
8832;DHT22;4452;50.756;4.472;2022-10-10T08:18:27;13.30;99.90
8832;DHT22;4452;50.756;4.472;2022-10-10T08:21:19;13.50;99.90
8832;DHT22;4452;50.756;4.472;2022-10-10T08:23:45;13.60;99.90
8832;DHT22;4452;50.756;4.472;2022-10-10T08:26:13;13.80;99.90
8832;DHT22;4452;50.756;4.472;2022-10-10T08:28:39;13.80;99.90
8832;DHT22;4452;50.756;4.472;2022-10-10T08:31:10;13.90;99.90
8832;DHT22;4452;50.756;4.472;2022-10-10T08:33:36;14.00;99.90
8832;DHT22;4452;50.756;4.472;2022-10-10T08:36:06;14.00;99.90
8832;DHT22;4452;50.756;4.472;2022-10-10T08:38:32;14.20;99.90
8832;DHT22;4452;50.756;4.472;2022-10-10T08:40:59;14.40;99.90
8832;DHT22;4452;50.756;4.472;2022-10-10T08:43:37;14.60;99.90
8832;DHT22;4452;50.756;4.472;2022-10-10T08:48:55;15.10;99.90
8832;DHT22;4452;50.756;4.472;2022-10-10T08:51:30;15.00;99.90
8832;DHT22;4452;50.756;4.472;2022-10-10T08:53:59;15.00;99.90
8832;DHT22;4452;50.756;4.472;2022-10-10T08:56:29;14.90;99.90
8832;DHT22;4452;50.756;4.472;2022-10-10T08:59:14;14.90;99.90
8832;DHT22;4452;50.756;4.472;2022-10-10T09:01:40;15.00;99.90
8832;DHT22;4452;50.756;4.472;2022-10-10T09:04:14;15.30;99.90
8832;DHT22;4452;50.756;4.472;2022-10-10T09:09:21;15.30;99.90
8832;DHT22;4452;50.756;4.472;2022-10-10T09:14:52;15.60;99.90
8832;DHT22;4452;50.756;4.472;2022-10-10T09:23:06;15.50;99.90
8832;DHT22;4452;50.756;4.472;2022-10-10T09:26:11;15.40;99.90
8832;DHT22;4452;50.756;4.472;2022-10-10T09:28:35;15.40;99.90
8832;DHT22;4452;50.756;4.472;2022-10-10T09:31:07;15.30;99.90
8832;DHT22;4452;50.756;4.472;2022-10-10T09:33:52;15.40;99.90
8832;DHT22;4452;50.756;4.472;2022-10-10T09:36:23;15.20;99.90
8832;DHT22;4452;50.756;4.472;2022-10-10T09:39:01;15.30;99.90
8832;DHT22;4452;50.756;4.472;2022-10-10T09:41:30;15.30;99.90
8832;DHT22;4452;50.756;4.472;2022-10-10T09:43:59;15.20;99.90
8832;DHT22;4452;50.756;4.472;2022-10-10T09:46:27;15.10;99.90
8832;DHT22;4452;50.756;4.472;2022-10-10T09:48:53;15.10;99.90
8832;DHT22;4452;50.756;4.472;2022-10-10T09:51:20;15.00;99.90
8832;DHT22;4452;50.756;4.472;2022-10-10T09:53:47;15.00;99.90
8832;DHT22;4452;50.756;4.472;2022-10-10T09:56:25;15.00;99.90
8832;DHT22;4452;50.756;4.472;2022-10-10T09:58:52;15.20;99.90
8832;DHT22;4452;50.756;4.472;2022-10-10T10:04:06;15.90;99.90
8832;DHT22;4452;50.756;4.472;2022-10-10T10:06:32;16.20;99.90
8832;DHT22;4452;50.756;4.472;2022-10-10T10:09:03;16.10;99.90
8832;DHT22;4452;50.756;4.472;2022-10-10T10:11:36;16.10;99.90
8832;DHT22;4452;50.756;4.472;2022-10-10T10:14:03;16.20;99.90
8832;DHT22;4452;50.756;4.472;2022-10-10T10:16:32;16.40;99.90
8832;DHT22;4452;50.756;4.472;2022-10-10T10:18:58;16.80;99.90
8832;DHT22;4452;50.756;4.472;2022-10-10T10:21:24;17.00;99.90
8832;DHT22;4452;50.756;4.472;2022-10-10T10:24:01;17.10;99.90
8832;DHT22;4452;50.756;4.472;2022-10-10T10:26:45;17.20;99.90
8832;DHT22;4452;50.756;4.472;2022-10-10T10:37:26;17.50;99.90
8832;DHT22;4452;50.756;4.472;2022-10-10T10:50:53;17.90;99.90
8832;DHT22;4452;50.756;4.472;2022-10-10T10:56:20;18.10;99.90
8832;DHT22;4452;50.756;4.472;2022-10-10T11:01:31;18.50;99.90
8832;DHT22;4452;50.756;4.472;2022-10-10T11:04:02;19.00;99.90
8832;DHT22;4452;50.756;4.472;2022-10-10T11:07:02;19.30;99.90
8832;DHT22;4452;50.756;4.472;2022-10-10T11:09:36;19.40;99.90
8832;DHT22;4452;50.756;4.472;2022-10-10T11:12:27;19.10;99.90
8832;DHT22;4452;50.756;4.472;2022-10-10T11:15:00;18.90;99.90
8832;DHT22;4452;50.756;4.472;2022-10-10T11:17:40;18.80;99.90
8832;DHT22;4452;50.756;4.472;2022-10-10T11:22:51;18.50;99.90
8832;DHT22;4452;50.756;4.472;2022-10-10T11:25:22;18.40;99.90
8832;DHT22;4452;50.756;4.472;2022-10-10T11:27:54;18.60;99.90
8832;DHT22;4452;50.756;4.472;2022-10-10T11:30:24;18.60;99.90
8832;DHT22;4452;50.756;4.472;2022-10-10T11:35:39;18.60;99.90
8832;DHT22;4452;50.756;4.472;2022-10-10T11:38:24;18.70;99.90
8832;DHT22;4452;50.756;4.472;2022-10-10T11:43:28;18.30;99.90
8832;DHT22;4452;50.756;4.472;2022-10-10T11:46:04;18.20;99.90
8832;DHT22;4452;50.756;4.472;2022-10-10T11:48:42;18.00;99.90
8832;DHT22;4452;50.756;4.472;2022-10-10T11:51:27;17.90;99.90
8832;DHT22;4452;50.756;4.472;2022-10-10T11:53:57;17.90;99.90
8832;DHT22;4452;50.756;4.472;2022-10-10T11:56:38;17.80;99.90
8832;DHT22;4452;50.756;4.472;2022-10-10T11:59:47;17.90;99.90
8832;DHT22;4452;50.756;4.472;2022-10-10T12:02:20;17.80;99.90
8832;DHT22;4452;50.756;4.472;2022-10-10T12:04:46;17.90;99.90
8832;DHT22;4452;50.756;4.472;2022-10-10T12:10:21;17.80;99.90
8832;DHT22;4452;50.756;4.472;2022-10-10T12:12:50;17.80;99.90
8832;DHT22;4452;50.756;4.472;2022-10-10T12:15:43;17.80;99.90
8832;DHT22;4452;50.756;4.472;2022-10-10T12:18:43;17.70;99.90
8832;DHT22;4452;50.756;4.472;2022-10-10T12:21:18;17.70;99.90
8832;DHT22;4452;50.756;4.472;2022-10-10T12:24:12;17.70;99.90
8832;DHT22;4452;50.756;4.472;2022-10-10T12:29:42;17.60;99.90
8832;DHT22;4452;50.756;4.472;2022-10-10T12:34:41;17.30;99.90
8832;DHT22;4452;50.756;4.472;2022-10-10T12:37:31;17.20;99.90
8832;DHT22;4452;50.756;4.472;2022-10-10T12:42:59;17.20;99.90
8832;DHT22;4452;50.756;4.472;2022-10-10T12:47:58;17.20;99.90
8832;DHT22;4452;50.756;4.472;2022-10-10T12:50:37;17.30;99.90
8832;DHT22;4452;50.756;4.472;2022-10-10T12:55:52;17.20;99.90
8832;DHT22;4452;50.756;4.472;2022-10-10T12:58:19;17.40;99.90
8832;DHT22;4452;50.756;4.472;2022-10-10T13:00:47;17.60;99.90
8832;DHT22;4452;50.756;4.472;2022-10-10T13:05:45;17.60;99.90
8832;DHT22;4452;50.756;4.472;2022-10-10T13:08:15;17.90;99.90
8832;DHT22;4452;50.756;4.472;2022-10-10T13:10:42;17.80;99.90
8832;DHT22;4452;50.756;4.472;2022-10-10T13:13:20;17.80;99.90
8832;DHT22;4452;50.756;4.472;2022-10-10T13:15:51;18.10;99.90
8832;DHT22;4452;50.756;4.472;2022-10-10T13:21:07;18.40;99.90
8832;DHT22;4452;50.756;4.472;2022-10-10T13:23:40;18.20;99.90
8832;DHT22;4452;50.756;4.472;2022-10-10T13:26:18;18.10;99.90
8832;DHT22;4452;50.756;4.472;2022-10-10T13:28:44;17.90;99.90
8832;DHT22;4452;50.756;4.472;2022-10-10T13:31:13;18.30;99.90
8832;DHT22;4452;50.756;4.472;2022-10-10T13:33:39;18.70;99.90
8832;DHT22;4452;50.756;4.472;2022-10-10T13:36:19;18.80;99.90
8832;DHT22;4452;50.756;4.472;2022-10-10T13:38:47;19.10;99.90
8832;DHT22;4452;50.756;4.472;2022-10-10T13:41:13;18.70;99.90
8832;DHT22;4452;50.756;4.472;2022-10-10T13:43:40;18.70;99.90
8832;DHT22;4452;50.756;4.472;2022-10-10T13:46:19;18.70;99.90
8832;DHT22;4452;50.756;4.472;2022-10-10T13:48:45;18.00;99.90
8832;DHT22;4452;50.756;4.472;2022-10-10T13:51:13;17.90;99.90
8832;DHT22;4452;50.756;4.472;2022-10-10T14:04:24;19.00;99.90
8832;DHT22;4452;50.756;4.472;2022-10-10T14:06:55;19.40;99.90
8832;DHT22;4452;50.756;4.472;2022-10-10T14:09:44;19.20;99.90
8832;DHT22;4452;50.756;4.472;2022-10-10T14:12:18;19.00;99.90
8832;DHT22;4452;50.756;4.472;2022-10-10T14:14:47;18.90;99.90
8832;DHT22;4452;50.756;4.472;2022-10-10T14:17:13;18.60;99.90
8832;DHT22;4452;50.756;4.472;2022-10-10T14:19:40;18.30;99.90
8832;DHT22;4452;50.756;4.472;2022-10-10T14:22:07;18.10;99.90
8832;DHT22;4452;50.756;4.472;2022-10-10T14:24:32;18.00;99.90
8832;DHT22;4452;50.756;4.472;2022-10-10T14:27:28;18.00;99.90
8832;DHT22;4452;50.756;4.472;2022-10-10T14:29:55;18.10;99.90
8832;DHT22;4452;50.756;4.472;2022-10-10T14:32:21;18.00;99.90
8832;DHT22;4452;50.756;4.472;2022-10-10T14:34:47;18.10;99.90
8832;DHT22;4452;50.756;4.472;2022-10-10T14:37:23;18.00;99.90
8832;DHT22;4452;50.756;4.472;2022-10-10T14:39:49;18.10;99.90
8832;DHT22;4452;50.756;4.472;2022-10-10T14:42:17;18.00;99.90
8832;DHT22;4452;50.756;4.472;2022-10-10T14:44:42;17.90;99.90
8832;DHT22;4452;50.756;4.472;2022-10-10T14:47:20;17.80;99.90
8832;DHT22;4452;50.756;4.472;2022-10-10T14:49:48;17.90;99.90
8832;DHT22;4452;50.756;4.472;2022-10-10T14:52:19;17.80;99.90
8832;DHT22;4452;50.756;4.472;2022-10-10T14:54:50;17.80;99.90
8832;DHT22;4452;50.756;4.472;2022-10-10T14:57:18;17.60;99.90
8832;DHT22;4452;50.756;4.472;2022-10-10T14:59:47;17.70;99.90
8832;DHT22;4452;50.756;4.472;2022-10-10T15:02:12;17.90;99.90
8832;DHT22;4452;50.756;4.472;2022-10-10T15:04:38;17.70;99.90
8832;DHT22;4452;50.756;4.472;2022-10-10T15:07:04;17.60;99.90
8832;DHT22;4452;50.756;4.472;2022-10-10T15:09:29;17.40;99.90
8832;DHT22;4452;50.756;4.472;2022-10-10T15:11:55;17.30;99.90
8832;DHT22;4452;50.756;4.472;2022-10-10T15:14:20;17.20;99.90
8832;DHT22;4452;50.756;4.472;2022-10-10T15:16:47;17.10;99.90
8832;DHT22;4452;50.756;4.472;2022-10-10T15:19:13;17.10;99.90
8832;DHT22;4452;50.756;4.472;2022-10-10T15:21:38;16.90;99.90
8832;DHT22;4452;50.756;4.472;2022-10-10T15:24:04;16.70;99.90
8832;DHT22;4452;50.756;4.472;2022-10-10T15:26:30;16.50;99.90
8832;DHT22;4452;50.756;4.472;2022-10-10T15:28:56;16.40;99.90
8832;DHT22;4452;50.756;4.472;2022-10-10T15:31:26;16.40;99.90
8832;DHT22;4452;50.756;4.472;2022-10-10T15:33:54;16.30;99.90
8832;DHT22;4452;50.756;4.472;2022-10-10T15:36:20;16.00;99.90
8832;DHT22;4452;50.756;4.472;2022-10-10T15:38:45;15.80;99.90
8832;DHT22;4452;50.756;4.472;2022-10-10T15:41:11;15.60;99.90
8832;DHT22;4452;50.756;4.472;2022-10-10T15:43:49;15.50;99.90
8832;DHT22;4452;50.756;4.472;2022-10-10T15:46:24;15.40;99.90
8832;DHT22;4452;50.756;4.472;2022-10-10T15:48:51;15.30;99.90
8832;DHT22;4452;50.756;4.472;2022-10-10T15:51:17;15.30;99.90
8832;DHT22;4452;50.756;4.472;2022-10-10T15:53:46;15.30;99.90
8832;DHT22;4452;50.756;4.472;2022-10-10T15:56:16;15.20;99.90
8832;DHT22;4452;50.756;4.472;2022-10-10T15:58:42;15.20;99.90
8832;DHT22;4452;50.756;4.472;2022-10-10T16:01:17;15.20;99.90
8832;DHT22;4452;50.756;4.472;2022-10-10T16:03:43;15.20;99.90
8832;DHT22;4452;50.756;4.472;2022-10-10T16:06:10;15.20;99.90
8832;DHT22;4452;50.756;4.472;2022-10-10T16:08:37;15.20;99.90
8832;DHT22;4452;50.756;4.472;2022-10-10T16:11:07;15.10;99.90
8832;DHT22;4452;50.756;4.472;2022-10-10T16:13:34;14.90;99.90
8832;DHT22;4452;50.756;4.472;2022-10-10T16:16:01;14.70;99.90
8832;DHT22;4452;50.756;4.472;2022-10-10T16:18:29;14.30;99.90
8832;DHT22;4452;50.756;4.472;2022-10-10T16:20:55;14.10;99.90
8832;DHT22;4452;50.756;4.472;2022-10-10T16:23:20;13.90;99.90
8832;DHT22;4452;50.756;4.472;2022-10-10T16:25:46;13.70;99.90
8832;DHT22;4452;50.756;4.472;2022-10-10T16:28:12;13.60;99.90
8832;DHT22;4452;50.756;4.472;2022-10-10T16:30:38;13.50;99.90
8832;DHT22;4452;50.756;4.472;2022-10-10T16:33:03;13.40;99.90
8832;DHT22;4452;50.756;4.472;2022-10-10T16:35:29;13.40;99.90
8832;DHT22;4452;50.756;4.472;2022-10-10T16:37:54;13.40;99.90
8832;DHT22;4452;50.756;4.472;2022-10-10T16:40:20;13.40;99.90
8832;DHT22;4452;50.756;4.472;2022-10-10T16:42:45;13.40;99.90
8832;DHT22;4452;50.756;4.472;2022-10-10T16:45:11;13.40;99.90
8832;DHT22;4452;50.756;4.472;2022-10-10T16:47:37;13.40;99.90
8832;DHT22;4452;50.756;4.472;2022-10-10T16:50:03;13.40;99.90
8832;DHT22;4452;50.756;4.472;2022-10-10T16:52:30;13.40;99.90
8832;DHT22;4452;50.756;4.472;2022-10-10T16:54:57;13.40;99.90
8832;DHT22;4452;50.756;4.472;2022-10-10T16:57:23;13.40;99.90
8832;DHT22;4452;50.756;4.472;2022-10-10T16:59:48;13.40;99.90
8832;DHT22;4452;50.756;4.472;2022-10-10T17:02:14;13.30;99.90
8832;DHT22;4452;50.756;4.472;2022-10-10T17:04:39;13.20;99.90
8832;DHT22;4452;50.756;4.472;2022-10-10T17:07:05;13.20;99.90
8832;DHT22;4452;50.756;4.472;2022-10-10T17:09:31;13.20;99.90
8832;DHT22;4452;50.756;4.472;2022-10-10T17:11:56;13.20;99.90
8832;DHT22;4452;50.756;4.472;2022-10-10T17:14:22;13.20;99.90
8832;DHT22;4452;50.756;4.472;2022-10-10T17:16:47;13.30;99.90
8832;DHT22;4452;50.756;4.472;2022-10-10T17:19:13;13.30;99.90
8832;DHT22;4452;50.756;4.472;2022-10-10T17:21:39;13.30;99.90
8832;DHT22;4452;50.756;4.472;2022-10-10T17:24:04;13.30;99.90
8832;DHT22;4452;50.756;4.472;2022-10-10T17:26:30;13.20;99.90
8832;DHT22;4452;50.756;4.472;2022-10-10T17:28:57;13.20;99.90
8832;DHT22;4452;50.756;4.472;2022-10-10T17:31:23;13.20;99.90
8832;DHT22;4452;50.756;4.472;2022-10-10T17:33:50;13.20;99.90
8832;DHT22;4452;50.756;4.472;2022-10-10T17:36:18;13.20;99.90
8832;DHT22;4452;50.756;4.472;2022-10-10T17:38:45;13.20;99.90
8832;DHT22;4452;50.756;4.472;2022-10-10T17:41:13;13.20;99.90
8832;DHT22;4452;50.756;4.472;2022-10-10T17:43:39;13.20;99.90
8832;DHT22;4452;50.756;4.472;2022-10-10T17:46:07;13.20;99.90
8832;DHT22;4452;50.756;4.472;2022-10-10T17:48:35;13.10;99.90
8832;DHT22;4452;50.756;4.472;2022-10-10T17:51:07;13.00;99.90
8832;DHT22;4452;50.756;4.472;2022-10-10T17:53:33;13.00;99.90
8832;DHT22;4452;50.756;4.472;2022-10-10T17:55:58;12.90;99.90
8832;DHT22;4452;50.756;4.472;2022-10-10T17:58:24;12.90;99.90
8832;DHT22;4452;50.756;4.472;2022-10-10T18:00:51;12.80;99.90
8832;DHT22;4452;50.756;4.472;2022-10-10T18:03:17;12.80;99.90